Time;durP1;ratioP1;P1;durP2;ratioP2;P2;SDS_P1;SDS_P2;PMS_P1;PMS_P2;Temp;Humidity;BMP_temperature;BMP_pressure;BME280_temperature;BME280_humidity;BME280_pressure;Samples;Min_cycle;Max_cycle;Signal;HPM_P1;HPM_P2
2022/10/11 00:03:06;;;;;;;9.20;3.03;;;;;;;17.69;40.65;101966.81;5049564;28;20993;-65
2022/10/11 00:05:32;;;;;;;6.30;2.73;;;;;;;17.75;40.81;101963.41;5026887;28;20421;-64
2022/10/11 00:14:25;;;;;;;7.68;2.85;;;;;;;17.82;41.51;101968.84;5034335;28;20484;-64
2022/10/11 00:19:10;;;;;;;6.70;2.70;;;;;;;17.71;41.88;101961.28;5091087;27;20410;-63
2022/10/11 00:21:36;;;;;;;4.75;2.80;;;;;;;17.71;42.12;101964.78;5066899;28;20454;-66
2022/10/11 00:24:02;;;;;;;5.93;2.83;;;;;;;17.74;42.02;101961.75;5066766;28;20372;-64
2022/10/11 00:26:28;;;;;;;5.15;2.75;;;;;;;17.68;42.19;101959.81;5066749;28;20433;-65
2022/10/11 00:28:53;;;;;;;5.63;3.00;;;;;;;17.68;42.11;101953.59;5066810;28;20422;-64
2022/10/11 00:33:23;;;;;;;4.15;2.95;;;;;;;17.59;42.19;101947.50;5097419;27;20406;-64
2022/10/11 00:39:03;;;;;;;9.63;3.83;;;;;;;17.46;42.72;101950.84;5080219;27;20477;-65
2022/10/11 00:41:42;;;;;;;5.78;3.33;;;;;;;17.48;42.49;101951.47;5072808;28;20923;-65
2022/10/11 00:44:15;;;;;;;5.63;3.08;;;;;;;17.42;42.53;101946.88;5046682;28;20514;-64
2022/10/11 00:46:45;;;;;;;5.63;3.00;;;;;;;17.35;42.58;101940.59;5046200;28;20899;-64
2022/10/11 00:49:20;;;;;;;9.85;3.42;;;;;;;17.27;42.81;101943.34;5046523;28;20468;-65
2022/10/11 00:51:53;;;;;;;6.78;3.25;;;;;;;17.15;42.91;101941.13;5046299;28;20435;-64
2022/10/11 00:54:24;;;;;;;9.20;3.20;;;;;;;17.15;43.00;101946.50;5047048;28;20382;-63
2022/10/11 00:56:55;;;;;;;5.55;3.03;;;;;;;17.23;42.81;101948.25;5046397;28;20388;-64
2022/10/11 00:59:25;;;;;;;6.72;3.20;;;;;;;17.23;42.70;101952.78;5046514;28;20500;-65
2022/10/11 01:02:46;;;;;;;6.55;3.00;;;;;;;17.24;42.71;101957.13;5061140;28;20413;-65
2022/10/11 01:05:15;;;;;;;5.40;3.10;;;;;;;17.20;42.84;101946.78;5046674;28;20455;-65
2022/10/11 01:07:42;;;;;;;7.95;3.40;;;;;;;17.25;42.69;101940.88;5046740;28;20374;-64
2022/10/11 01:11:13;;;;;;;7.68;3.30;;;;;;;17.20;42.63;101945.94;5094602;27;20402;-64
2022/10/11 01:15:40;;;;;;;9.90;4.00;;;;;;;17.15;42.75;101941.13;5099050;27;20406;-66
2022/10/11 01:18:38;;;;;;;7.90;3.83;;;;;;;17.19;42.64;101926.34;5074576;28;20512;-64
2022/10/11 01:21:25;;;;;;;10.32;3.58;;;;;;;17.20;42.38;101925.34;5066493;28;21500;-64
2022/10/11 01:25:05;;;;;;;5.72;3.38;;;;;;;17.20;42.50;101925.34;5071032;27;20435;-65
2022/10/11 01:28:23;;;;;;;7.50;3.60;;;;;;;17.13;42.64;101932.44;5046651;28;20402;-64
2022/10/11 01:34:58;;;;;;;8.00;3.38;;;;;;;17.22;42.54;101917.13;5074178;27;20407;-64
2022/10/11 01:37:33;;;;;;;6.80;3.42;;;;;;;17.23;42.58;101918.75;5066832;28;20499;-64
2022/10/11 01:40:13;;;;;;;6.93;3.40;;;;;;;17.23;42.76;101908.03;5066869;28;20391;-64
2022/10/11 01:43:43;;;;;;;8.95;3.65;;;;;;;17.19;42.78;101920.16;5097007;27;20823;-64
2022/10/11 01:46:09;;;;;;;5.78;3.58;;;;;;;17.18;43.03;101910.47;5085033;28;20784;-65
2022/10/11 01:48:56;;;;;;;7.53;3.58;;;;;;;17.25;42.95;101916.75;5086550;27;20831;-66
2022/10/11 01:54:03;;;;;;;6.43;3.67;;;;;;;17.23;43.36;101910.72;5089046;27;20404;-64
2022/10/11 01:57:54;;;;;;;7.85;3.75;;;;;;;17.21;43.69;101912.75;5042334;28;20477;-65
2022/10/11 02:01:07;;;;;;;7.10;3.70;;;;;;;17.22;44.01;101910.94;5086594;27;20412;-64
2022/10/11 02:03:48;;;;;;;6.17;3.53;;;;;;;17.20;44.22;101906.56;5066060;28;20428;-64
2022/10/11 02:09:04;;;;;;;6.65;3.50;;;;;;;17.15;43.96;101911.66;5048285;28;20409;-64
2022/10/11 02:13:06;;;;;;;9.20;3.65;;;;;;;17.14;43.88;101907.31;5082640;27;20922;-64
2022/10/11 02:15:34;;;;;;;8.50;4.07;;;;;;;17.08;43.94;101907.22;5060467;28;20414;-65
2022/10/11 02:19:05;;;;;;;6.28;3.50;;;;;;;16.99;44.09;101906.47;5071212;27;20836;-64
2022/10/11 02:21:52;;;;;;;8.95;4.10;;;;;;;16.92;44.19;101914.41;5043516;28;20411;-64
2022/10/11 02:24:23;;;;;;;13.48;4.80;;;;;;;16.90;44.08;101915.59;5022895;28;20411;-64
2022/10/11 02:33:13;;;;;;;10.35;4.55;;;;;;;16.86;44.09;101908.97;5106009;27;20917;-64
2022/10/11 02:35:43;;;;;;;17.47;8.67;;;;;;;16.82;44.12;101909.28;5101279;28;20537;-64
2022/10/11 02:38:17;;;;;;;14.90;6.38;;;;;;;16.80;44.04;101908.63;5067217;28;20463;-65
2022/10/11 02:40:47;;;;;;;11.98;5.78;;;;;;;16.81;44.17;101901.44;5080763;28;20871;-65
2022/10/11 02:44:15;;;;;;;11.98;5.90;;;;;;;16.79;44.17;101904.28;5075677;27;20461;-65
2022/10/11 02:46:42;;;;;;;8.82;4.80;;;;;;;16.79;44.14;101911.50;5078963;28;20396;-64
2022/10/11 02:50:06;;;;;;;11.95;5.15;;;;;;;16.75;44.19;101900.31;5091115;27;20400;-64
2022/10/11 02:52:31;;;;;;;11.60;5.13;;;;;;;16.79;44.43;101904.28;5066542;28;20467;-65
2022/10/11 02:54:57;;;;;;;11.83;5.20;;;;;;;16.80;44.43;101897.09;5060737;28;20818;-65
2022/10/11 02:59:45;;;;;;;13.20;6.18;;;;;;;16.84;44.83;101914.50;5074388;27;20413;-64
2022/10/11 03:06:23;;;;;;;13.27;5.40;;;;;;;16.78;44.87;101899.09;5090238;27;20456;-64
2022/10/11 03:08:48;;;;;;;9.68;4.90;;;;;;;16.73;44.77;101893.50;5082995;28;20398;-64
2022/10/11 03:11:13;;;;;;;9.10;4.90;;;;;;;16.74;44.62;101900.50;5072888;28;20380;-65
2022/10/11 03:13:39;;;;;;;8.40;4.63;;;;;;;16.73;44.29;101897.00;5066872;28;20453;-64
2022/10/11 03:16:05;;;;;;;9.50;4.93;;;;;;;16.73;44.50;101894.31;5074544;28;20382;-64
2022/10/11 03:18:30;;;;;;;9.27;5.07;;;;;;;16.74;44.87;101895.97;5069293;28;20773;-65
2022/10/11 03:23:12;;;;;;;11.73;5.07;;;;;;;16.79;44.87;101890.06;5041418;28;20461;-64
2022/10/11 03:25:38;;;;;;;7.65;4.50;;;;;;;16.74;44.83;101884.44;5019665;28;20408;-64
2022/10/11 03:28:03;;;;;;;7.90;4.90;;;;;;;16.66;44.71;101888.03;5026979;28;20375;-65
2022/10/11 03:30:29;;;;;;;10.80;4.60;;;;;;;16.68;44.91;101888.66;5024864;28;20389;-64
2022/10/11 03:32:55;;;;;;;10.47;5.20;;;;;;;16.70;44.78;101886.63;5026959;28;20426;-64
2022/10/11 03:36:27;;;;;;;10.75;5.45;;;;;;;16.74;44.95;101889.78;5055985;28;20814;-64
2022/10/11 03:38:53;;;;;;;12.98;6.20;;;;;;;16.73;45.43;101880.94;5033049;28;20966;-64
2022/10/11 03:41:18;;;;;;;10.77;5.80;;;;;;;16.70;45.17;101875.94;5026448;28;20379;-65
2022/10/11 03:43:44;;;;;;;14.48;5.85;;;;;;;16.73;45.48;101882.78;5015502;28;20393;-66
2022/10/11 03:46:09;;;;;;;10.27;5.27;;;;;;;16.76;45.34;101879.72;5023483;28;20446;-65
2022/10/11 03:48:35;;;;;;;10.90;5.07;;;;;;;16.75;45.01;101878.06;5022523;28;20455;-65
2022/10/11 03:51:00;;;;;;;16.43;5.13;;;;;;;16.68;45.41;101863.75;5022589;28;20395;-65
2022/10/11 03:56:09;;;;;;;12.63;6.13;;;;;;;16.75;46.39;101884.25;5035971;28;20485;-65
2022/10/11 03:58:34;;;;;;;11.40;7.20;;;;;;;16.74;46.51;101885.25;5032564;28;20395;-64
2022/10/11 04:01:00;;;;;;;13.83;9.50;;;;;;;16.75;46.20;101891.47;5025987;28;20383;-64
2022/10/11 04:03:56;;;;;;;12.45;7.20;;;;;;;16.73;46.29;101883.59;5049005;28;20406;-64
2022/10/11 04:06:22;;;;;;;17.33;7.78;;;;;;;16.70;46.64;101873.25;5043397;28;20830;-64
2022/10/11 04:08:48;;;;;;;10.15;6.13;;;;;;;16.71;46.84;101882.09;5045601;28;20957;-64
2022/10/11 04:11:13;;;;;;;17.80;6.17;;;;;;;16.74;46.94;101885.25;5045871;28;20398;-64
2022/10/11 04:15:40;;;;;;;15.55;6.28;;;;;;;16.74;47.13;101869.19;5086666;27;20937;-64
2022/10/11 04:18:06;;;;;;;14.38;6.25;;;;;;;16.73;47.04;101854.16;5084231;28;20911;-65
2022/10/11 04:20:31;;;;;;;16.50;6.50;;;;;;;16.74;46.85;101863.81;5082410;28;20386;-64
2022/10/11 04:22:57;;;;;;;16.23;6.82;;;;;;;16.73;46.82;101856.81;5077512;28;20402;-63
2022/10/11 04:25:23;;;;;;;12.13;5.77;;;;;;;16.75;46.83;101868.19;5059535;28;20951;-66
2022/10/11 04:27:49;;;;;;;14.40;6.93;;;;;;;16.72;46.70;101871.22;5084129;28;20820;-64
2022/10/11 04:30:15;;;;;;;11.52;5.88;;;;;;;16.71;46.45;101872.25;5068331;28;20763;-65
2022/10/11 04:32:41;;;;;;;12.70;5.38;;;;;;;16.71;46.45;101866.03;5077127;28;20394;-64
2022/10/11 04:35:07;;;;;;;15.68;6.15;;;;;;;16.67;46.55;101862.06;5063734;28;20469;-64
2022/10/11 04:37:33;;;;;;;12.17;5.03;;;;;;;16.68;46.42;101869.94;5063707;28;20384;-65
2022/10/11 04:39:58;;;;;;;12.70;5.03;;;;;;;16.66;46.47;101866.59;5063873;28;20395;-65
2022/10/11 04:42:24;;;;;;;11.07;5.13;;;;;;;16.66;46.42;101857.75;5076244;28;20432;-64
2022/10/11 04:46:24;;;;;;;11.32;5.63;;;;;;;16.64;46.40;101863.28;5034249;28;20466;-64
2022/10/11 04:48:49;;;;;;;11.63;5.53;;;;;;;16.67;46.51;101872.78;5034760;28;20391;-65
2022/10/11 04:51:15;;;;;;;13.47;5.33;;;;;;;16.65;46.68;101867.59;5036307;28;20388;-66
2022/10/11 04:53:41;;;;;;;12.48;5.15;;;;;;;16.66;46.46;101869.28;5015694;28;20758;-65
2022/10/11 04:56:10;;;;;;;8.25;4.78;;;;;;;16.63;46.22;101872.31;5026537;28;20391;-65
2022/10/11 04:58:39;;;;;;;9.98;5.13;;;;;;;16.62;46.48;101874.16;5037551;28;20418;-65
2022/10/11 05:01:06;;;;;;;13.07;5.15;;;;;;;16.62;46.54;101873.34;5031762;28;20758;-64
2022/10/11 05:03:31;;;;;;;9.27;5.13;;;;;;;16.61;46.41;101869.00;5037219;28;20382;-64
2022/10/11 05:05:57;;;;;;;9.47;5.40;;;;;;;16.57;46.28;101865.84;5026360;28;20407;-65
2022/10/11 05:08:23;;;;;;;12.38;8.50;;;;;;;16.65;46.29;101881.00;5025944;28;20397;-64
2022/10/11 05:10:58;;;;;;;11.93;5.83;;;;;;;16.65;46.57;101877.50;5026457;28;20386;-64
2022/10/11 05:13:24;;;;;;;13.20;6.03;;;;;;;16.62;46.44;101870.66;5036686;28;20399;-64
2022/10/11 05:15:50;;;;;;;18.10;8.02;;;;;;;16.67;46.62;101867.44;5026397;28;20490;-64
2022/10/11 05:18:16;;;;;;;19.25;6.90;;;;;;;16.71;46.62;101868.72;5037184;28;20958;-65
2022/10/11 05:20:41;;;;;;;20.85;11.48;;;;;;;16.69;46.72;101858.22;5026259;28;20383;-67
2022/10/11 05:23:07;;;;;;;19.43;9.10;;;;;;;16.73;46.60;101862.19;5036538;28;20473;-65
2022/10/11 05:25:33;;;;;;;11.50;7.40;;;;;;;16.80;46.52;101864.97;5026235;28;20489;-64
2022/10/11 05:27:58;;;;;;;17.07;7.03;;;;;;;16.73;46.64;101854.16;5034578;28;20385;-64
2022/10/11 05:30:24;;;;;;;13.27;6.23;;;;;;;16.77;46.66;101860.78;5028473;28;20396;-65
2022/10/11 05:32:49;;;;;;;15.15;6.00;;;;;;;16.75;46.51;101857.47;5032435;28;20393;-65
2022/10/11 05:35:15;;;;;;;15.00;6.97;;;;;;;16.79;46.59;101866.78;5030556;28;20390;-65
2022/10/11 05:37:40;;;;;;;14.60;6.60;;;;;;;16.84;46.63;101878.84;5026320;28;20419;-64
2022/10/11 05:40:06;;;;;;;10.93;5.70;;;;;;;16.86;46.50;101871.47;5035379;28;20377;-65
2022/10/11 05:42:32;;;;;;;11.38;6.50;;;;;;;16.87;46.42;101875.78;5031361;28;20482;-65
2022/10/11 05:44:57;;;;;;;12.13;5.63;;;;;;;16.86;46.36;101888.34;5038420;28;20789;-65
2022/10/11 05:47:23;;;;;;;12.53;5.50;;;;;;;16.88;46.23;101897.03;5039157;28;20386;-64
2022/10/11 05:49:48;;;;;;;13.80;6.77;;;;;;;16.90;46.23;101886.97;5045317;28;20382;-65
2022/10/11 05:52:18;;;;;;;15.77;6.87;;;;;;;16.92;46.36;101892.97;5045585;28;20451;-65
2022/10/11 05:54:44;;;;;;;13.88;7.95;;;;;;;17.00;46.08;101889.41;5041631;28;20897;-64
2022/10/11 05:57:09;;;;;;;16.10;8.45;;;;;;;17.04;46.12;101887.19;5015838;28;20467;-64
2022/10/11 05:59:35;;;;;;;16.03;8.67;;;;;;;17.08;45.73;101886.63;5011950;28;20384;-65
2022/10/11 06:02:00;;;;;;;19.77;7.93;;;;;;;17.19;45.75;101898.72;5012165;28;20459;-65
2022/10/11 06:04:26;;;;;;;16.00;7.63;;;;;;;17.27;45.53;101897.78;5012133;28;20498;-65
2022/10/11 06:06:51;;;;;;;13.68;7.68;;;;;;;17.35;45.52;101905.75;5026016;28;20398;-64
2022/10/11 06:09:17;;;;;;;15.13;8.40;;;;;;;17.46;45.32;101907.13;5022473;28;20820;-65
2022/10/11 06:11:44;;;;;;;13.35;7.82;;;;;;;17.55;45.14;101906.00;5017769;28;20398;-64
2022/10/11 06:14:10;;;;;;;15.25;7.80;;;;;;;17.62;45.04;101906.91;5031636;28;20466;-65
2022/10/11 06:16:36;;;;;;;37.92;10.90;;;;;;;17.69;44.99;101901.63;5031495;28;20972;-64
2022/10/11 06:19:03;;;;;;;27.20;9.13;;;;;;;17.76;44.83;101894.50;5031556;28;20422;-66
2022/10/11 06:21:29;;;;;;;15.37;6.17;;;;;;;17.83;44.62;101900.78;5031506;28;20386;-64
2022/10/11 06:23:54;;;;;;;15.67;5.97;;;;;;;17.83;44.49;101905.31;5031465;28;20448;-65
2022/10/11 06:26:20;;;;;;;19.77;6.73;;;;;;;17.83;44.74;101908.00;5031678;28;20422;-64
2022/10/11 06:28:46;;;;;;;22.77;6.30;;;;;;;17.88;44.57;101900.22;5013701;28;20695;-65
2022/10/11 06:31:11;;;;;;;17.93;5.37;;;;;;;18.01;44.36;101913.81;5021651;28;20904;-65
2022/10/11 06:36:00;;;;;;;16.83;6.15;;;;;;;18.14;44.00;101908.56;5099643;27;20410;-64
2022/10/11 06:38:26;;;;;;;8.40;4.78;;;;;;;18.08;44.02;101913.88;5086879;28;20440;-65
2022/10/11 06:42:10;;;;;;;10.32;5.75;;;;;;;18.26;43.83;101913.44;5110960;27;20404;-64
2022/10/11 06:44:36;;;;;;;13.88;5.45;;;;;;;18.22;43.60;101914.81;5056848;28;20413;-64
2022/10/11 06:47:02;;;;;;;15.20;6.33;;;;;;;18.31;43.76;101914.53;5046895;28;20404;-64
2022/10/11 06:49:27;;;;;;;16.93;5.77;;;;;;;18.43;43.44;101916.69;5060167;28;20770;-63
2022/10/11 06:51:53;;;;;;;10.10;5.27;;;;;;;18.48;43.29;101916.94;5054964;28;20384;-63
2022/10/11 06:54:18;;;;;;;8.83;5.63;;;;;;;18.41;43.55;101914.19;5052114;28;20888;-65
2022/10/11 06:56:44;;;;;;;9.17;4.80;;;;;;;18.42;43.61;101909.66;5060768;28;20385;-64
2022/10/11 06:59:11;;;;;;;11.35;6.15;;;;;;;18.34;43.91;101918.66;5060833;28;20444;-64
2022/10/11 07:01:36;;;;;;;12.80;5.60;;;;;;;18.49;43.69;101916.75;5059915;28;20397;-65
2022/10/11 07:04:02;;;;;;;9.93;5.30;;;;;;;18.56;43.58;101911.41;5058689;28;20384;-65
2022/10/11 07:06:29;;;;;;;10.13;4.95;;;;;;;18.56;43.27;101916.78;5065781;28;20882;-65
2022/10/11 07:08:54;;;;;;;11.87;4.73;;;;;;;18.57;43.04;101902.34;5063434;28;20410;-64
2022/10/11 07:11:23;;;;;;;7.40;4.60;;;;;;;18.64;42.68;101911.28;5063275;28;20379;-64
2022/10/11 07:13:51;;;;;;;6.50;4.30;;;;;;;18.53;42.97;101917.19;5063780;28;20407;-64
2022/10/11 07:16:18;;;;;;;9.47;5.10;;;;;;;18.62;43.10;101910.66;5063202;28;20368;-64
2022/10/11 07:18:44;;;;;;;9.30;4.70;;;;;;;18.81;42.69;101919.91;5063121;28;20896;-65
2022/10/11 07:21:13;;;;;;;10.17;4.40;;;;;;;18.58;42.57;101905.88;5064566;28;20924;-65
2022/10/11 07:23:39;;;;;;;7.20;4.63;;;;;;;18.50;42.90;101910.34;5064273;28;20388;-65
2022/10/11 07:26:05;;;;;;;12.13;4.38;;;;;;;18.48;42.48;101914.25;5068276;28;20377;-65
2022/10/11 07:28:32;;;;;;;8.57;4.13;;;;;;;18.62;42.07;101910.66;5047332;28;20374;-65
2022/10/11 07:30:58;;;;;;;9.23;4.13;;;;;;;18.78;41.41;101909.56;5044683;28;20386;-64
2022/10/11 07:33:24;;;;;;;10.75;4.20;;;;;;;18.80;40.84;101915.56;5047935;28;20403;-65
2022/10/11 07:35:49;;;;;;;7.78;3.95;;;;;;;18.79;40.65;101916.56;5045258;28;20412;-65
2022/10/11 07:38:16;;;;;;;8.33;4.37;;;;;;;18.70;40.76;101923.13;5045467;28;20377;-64
2022/10/11 07:40:43;;;;;;;8.67;4.13;;;;;;;18.68;40.90;101919.78;5059269;28;20531;-63
2022/10/11 07:43:11;;;;;;;7.38;3.97;;;;;;;18.66;40.77;101922.66;5045663;28;20385;-64
2022/10/11 07:45:38;;;;;;;8.68;4.25;;;;;;;18.80;40.62;101923.63;5045355;28;20385;-64
2022/10/11 07:48:03;;;;;;;10.27;4.53;;;;;;;18.91;40.43;101914.22;5051658;28;20391;-63
2022/10/11 07:50:29;;;;;;;8.20;3.95;;;;;;;18.83;40.51;101917.03;5063787;28;20476;-64
2022/10/11 07:52:54;;;;;;;7.50;3.93;;;;;;;18.79;40.05;101915.75;5034359;28;20497;-64
2022/10/11 07:55:20;;;;;;;8.75;3.60;;;;;;;18.85;39.64;101913.16;5044159;28;20466;-65
2022/10/11 07:57:45;;;;;;;6.87;3.57;;;;;;;18.96;39.79;101922.53;5036447;28;20413;-64
2022/10/11 08:00:11;;;;;;;7.72;3.40;;;;;;;18.90;39.47;101931.34;5030765;28;20421;-64
2022/10/11 08:05:12;;;;;;;6.50;3.67;;;;;;;19.02;39.56;101928.97;5127702;27;20600;-64
2022/10/11 08:07:37;;;;;;;8.07;4.15;;;;;;;19.06;39.54;101933.75;5114217;28;20500;-65
2022/10/11 08:10:07;;;;;;;6.37;3.93;;;;;;;19.17;39.44;101916.22;5115555;28;20514;-64
2022/10/11 08:12:32;;;;;;;8.97;3.90;;;;;;;19.25;39.02;101912.56;5117074;28;20377;-64
2022/10/11 08:14:58;;;;;;;8.43;4.20;;;;;;;19.31;39.00;101932.47;5115994;28;20815;-64
2022/10/11 08:17:25;;;;;;;5.18;3.50;;;;;;;19.14;39.24;101931.94;5124920;28;20395;-64
2022/10/11 08:19:50;;;;;;;6.47;3.80;;;;;;;19.19;39.60;101922.25;5123897;28;20379;-64
2022/10/11 08:22:16;;;;;;;7.23;4.00;;;;;;;19.20;39.29;101926.59;5124372;28;20394;-64
2022/10/11 08:25:45;;;;;;;10.93;4.07;;;;;;;19.18;39.49;101917.09;5079149;27;20404;-64
2022/10/11 08:28:16;;;;;;;8.43;4.15;;;;;;;19.40;39.17;101918.63;5063789;28;20902;-64
2022/10/11 08:30:52;;;;;;;9.52;4.57;;;;;;;19.46;39.33;101919.69;5060651;28;20380;-64
2022/10/11 08:33:19;;;;;;;8.68;4.40;;;;;;;19.45;39.21;101918.88;5061433;28;20437;-64
2022/10/11 08:35:45;;;;;;;8.73;4.30;;;;;;;19.42;39.12;101927.34;5063371;28;20384;-64
2022/10/11 08:38:11;;;;;;;11.40;4.60;;;;;;;19.28;39.37;101917.53;5062574;28;21094;-64
2022/10/11 08:40:37;;;;;;;6.97;4.15;;;;;;;19.22;39.34;101921.84;5060971;28;20864;-64
2022/10/11 08:43:06;;;;;;;6.53;4.18;;;;;;;19.20;39.60;101910.47;5059498;28;20382;-66
2022/10/11 08:45:41;;;;;;;9.52;4.50;;;;;;;19.19;39.81;101916.84;5054118;28;20911;-65
2022/10/11 08:48:12;;;;;;;8.75;4.53;;;;;;;19.25;39.72;101909.88;5046295;28;20388;-64
2022/10/11 08:50:38;;;;;;;9.07;4.40;;;;;;;19.22;39.81;101910.28;5045880;28;20772;-64
2022/10/11 08:53:19;;;;;;;8.63;4.38;;;;;;;19.27;39.83;101910.50;5045780;28;20385;-64
2022/10/11 08:55:53;;;;;;;14.13;5.60;;;;;;;19.20;39.83;101906.97;5046990;28;20963;-64
2022/10/11 08:58:29;;;;;;;10.32;4.47;;;;;;;19.44;39.89;101902.94;5050032;28;20397;-64
2022/10/11 09:00:56;;;;;;;8.35;5.05;;;;;;;19.35;39.81;101901.44;5050525;28;20384;-63
2022/10/11 09:03:38;;;;;;;9.13;4.30;;;;;;;19.25;40.28;101904.50;5046610;28;20757;-63
2022/10/11 09:06:18;;;;;;;8.32;4.57;;;;;;;19.29;40.12;101903.91;5045925;28;20423;-63
2022/10/11 09:09:14;;;;;;;9.88;4.95;;;;;;;19.47;39.97;101902.53;5046014;28;20396;-63
2022/10/11 09:11:58;;;;;;;7.70;5.13;;;;;;;19.63;39.70;101909.44;5059760;28;20381;-64
2022/10/11 09:14:39;;;;;;;9.30;5.03;;;;;;;19.61;39.84;101904.25;5064149;28;20762;-63
2022/10/11 09:17:53;;;;;;;9.75;5.00;;;;;;;19.62;40.06;101897.00;5059936;28;20380;-63
2022/10/11 09:20:29;;;;;;;10.40;5.20;;;;;;;19.64;39.70;101894.94;5061960;28;20396;-62
2022/10/11 09:23:21;;;;;;;10.27;5.13;;;;;;;19.62;39.86;101902.38;5047575;28;20906;-63
2022/10/11 09:26:07;;;;;;;10.57;5.28;;;;;;;19.55;39.80;101883.53;5046517;28;20402;-65
2022/10/11 09:29:09;;;;;;;9.73;5.00;;;;;;;19.68;39.56;101888.16;5055336;28;20468;-63
2022/10/11 09:31:34;;;;;;;11.88;5.60;;;;;;;19.69;39.48;101892.47;5052200;28;20404;-63
2022/10/11 09:34:10;;;;;;;11.35;5.30;;;;;;;19.73;39.46;101892.91;5065052;28;20380;-63
2022/10/11 09:37:21;;;;;;;12.55;5.78;;;;;;;19.78;39.64;101891.31;5053109;28;20396;-63
2022/10/11 09:41:59;;;;;;;14.40;6.13;;;;;;;19.95;39.09;101890.94;5095585;27;20468;-63
2022/10/11 09:44:33;;;;;;;8.63;5.30;;;;;;;20.01;38.90;101892.81;5086589;28;20402;-63
2022/10/11 09:46:59;;;;;;;10.30;5.53;;;;;;;20.10;39.05;101896.97;5086357;28;20448;-63
2022/10/11 09:49:32;;;;;;;11.30;5.97;;;;;;;20.05;39.13;101894.88;5086558;28;20422;-63
2022/10/11 09:52:01;;;;;;;11.77;5.57;;;;;;;19.98;39.33;101891.34;5072596;28;20939;-62
2022/10/11 09:54:41;;;;;;;9.23;5.50;;;;;;;19.99;39.47;101892.19;5086632;28;20385;-62
2022/10/11 09:57:31;;;;;;;11.73;5.80;;;;;;;20.12;39.18;101899.47;5086486;28;20394;-63
2022/10/11 10:00:00;;;;;;;12.97;6.30;;;;;;;20.11;38.97;101897.78;5068169;28;20416;-65
2022/10/11 10:02:28;;;;;;;14.02;6.40;;;;;;;20.22;39.01;101910.66;5069018;28;20443;-63
2022/10/11 10:05:13;;;;;;;11.47;6.27;;;;;;;20.24;38.98;101893.28;5077177;28;20408;-63
2022/10/11 10:07:55;;;;;;;14.45;6.15;;;;;;;20.26;39.03;101893.06;5084493;28;20810;-63
2022/10/11 10:10:30;;;;;;;10.02;5.78;;;;;;;20.16;39.08;101888.06;5086506;28;20384;-63
2022/10/11 10:12:58;;;;;;;11.27;5.43;;;;;;;20.28;38.73;101891.00;5080411;28;20401;-63
2022/10/11 10:15:30;;;;;;;12.80;6.20;;;;;;;20.13;39.03;101891.19;5078316;28;20481;-63
2022/10/11 10:17:57;;;;;;;10.35;5.68;;;;;;;19.88;39.11;101892.78;5086158;28;20880;-63
2022/10/11 10:20:31;;;;;;;10.52;5.72;;;;;;;19.77;39.31;101884.28;5086108;28;21060;-63
2022/10/11 10:23:05;;;;;;;11.77;5.90;;;;;;;19.84;39.41;101884.28;5085871;28;20385;-63
2022/10/11 10:25:35;;;;;;;13.50;5.82;;;;;;;19.86;39.27;101882.22;5085934;28;20374;-64
2022/10/11 10:28:15;;;;;;;13.00;5.70;;;;;;;19.88;39.45;101882.00;5085878;28;20401;-63
2022/10/11 10:30:53;;;;;;;9.13;5.53;;;;;;;20.03;39.49;101880.81;5074384;28;20392;-63
2022/10/11 10:33:20;;;;;;;10.95;5.65;;;;;;;20.07;39.50;101875.03;5085140;28;20399;-63
2022/10/11 10:36:26;;;;;;;11.10;5.32;;;;;;;20.19;39.33;101863.44;5087417;27;20405;-64
2022/10/11 10:40:39;;;;;;;11.25;5.25;;;;;;;20.29;39.08;101868.41;5052147;28;20409;-64
2022/10/11 10:43:10;;;;;;;11.05;5.30;;;;;;;20.34;39.12;101868.63;5026853;28;21040;-66
2022/10/11 10:46:10;;;;;;;12.20;5.13;;;;;;;20.44;38.79;101860.13;5039573;28;20473;-64
2022/10/11 10:48:52;;;;;;;10.87;5.27;;;;;;;20.53;38.72;101850.81;5046928;28;20396;-64
2022/10/11 10:52:15;;;;;;;9.02;5.35;;;;;;;20.44;38.90;101857.44;5055997;28;20409;-64
2022/10/11 10:55:12;;;;;;;9.20;5.25;;;;;;;20.37;38.61;101856.63;5043019;28;20410;-63
2022/10/11 10:58:00;;;;;;;10.93;5.43;;;;;;;20.36;38.61;101849.56;5040533;28;20390;-65
2022/10/11 11:00:35;;;;;;;9.85;5.05;;;;;;;20.38;38.72;101850.19;5038125;28;20383;-63
2022/10/11 11:03:01;;;;;;;9.00;4.80;;;;;;;20.41;38.92;101853.28;5027994;28;20390;-64
2022/10/11 11:05:47;;;;;;;10.07;5.20;;;;;;;20.44;38.96;101850.19;5038658;28;20376;-64
2022/10/11 11:09:08;;;;;;;10.57;5.00;;;;;;;20.24;39.19;101855.56;5095082;27;20408;-64
2022/10/11 11:12:35;;;;;;;10.55;4.95;;;;;;;20.37;38.97;101854.75;5083106;27;20469;-64
2022/10/11 11:15:13;;;;;;;9.77;5.35;;;;;;;20.33;39.07;101849.97;5066480;28;20398;-64
2022/10/11 11:17:44;;;;;;;9.70;5.38;;;;;;;20.15;39.29;101843.34;5076630;28;20790;-63
2022/10/11 11:20:28;;;;;;;10.10;5.15;;;;;;;20.28;39.17;101841.72;5064882;28;20397;-64
2022/10/11 11:23:26;;;;;;;10.90;5.00;;;;;;;20.52;39.03;101840.25;5064020;28;20394;-63
2022/10/11 11:26:33;;;;;;;10.23;5.07;;;;;;;20.69;38.75;101844.19;5055384;28;20452;-64
2022/10/11 11:29:17;;;;;;;13.73;5.67;;;;;;;20.74;38.84;101846.25;5051236;28;20407;-64
2022/10/11 11:32:00;;;;;;;12.32;5.15;;;;;;;20.64;38.77;101833.22;5061237;28;20506;-63
2022/10/11 11:34:57;;;;;;;9.90;5.20;;;;;;;20.61;38.72;101836.31;5061109;28;20388;-64
2022/10/11 11:38:17;;;;;;;10.30;5.30;;;;;;;20.48;39.08;101828.22;5074703;27;20412;-63
2022/10/11 11:40:50;;;;;;;8.23;5.10;;;;;;;20.55;38.96;101835.25;5069589;28;20482;-64
2022/10/11 11:43:47;;;;;;;10.73;5.03;;;;;;;20.51;38.73;101841.25;5072584;28;20397;-63
2022/10/11 11:46:24;;;;;;;10.30;5.05;;;;;;;20.48;38.79;101839.00;5080778;28;20407;-64
2022/10/11 11:48:53;;;;;;;9.02;5.22;;;;;;;20.42;39.12;101838.78;5084117;28;20397;-64
2022/10/11 11:52:59;;;;;;;10.05;4.97;;;;;;;20.25;39.16;101834.84;5087946;27;20464;-65
2022/10/11 11:55:34;;;;;;;9.00;5.32;;;;;;;20.19;39.36;101833.00;5051628;28;20399;-65
2022/10/11 11:58:37;;;;;;;9.55;5.32;;;;;;;20.11;39.36;101834.00;5065326;28;20477;-65
2022/10/11 12:01:22;;;;;;;9.10;5.07;;;;;;;20.14;39.36;101838.16;5065372;28;20395;-65
2022/10/11 12:03:54;;;;;;;11.07;5.25;;;;;;;20.27;39.30;101827.38;5065008;28;20380;-64
2022/10/11 12:06:23;;;;;;;14.00;5.25;;;;;;;20.28;39.28;101821.00;5062127;28;20421;-65
2022/10/11 12:09:04;;;;;;;9.73;4.82;;;;;;;20.34;39.32;101830.09;5064485;28;20372;-64
2022/10/11 12:11:40;;;;;;;13.88;5.63;;;;;;;20.37;39.40;101825.13;5064777;28;20469;-65
2022/10/11 12:14:26;;;;;;;12.48;4.90;;;;;;;20.34;39.31;101828.22;5065375;28;20387;-66
2022/10/11 12:17:15;;;;;;;10.65;5.20;;;;;;;20.31;39.69;101820.56;5065182;28;20415;-64
2022/10/11 12:20:15;;;;;;;8.32;4.45;;;;;;;20.41;39.40;101825.53;5055636;28;20387;-64
2022/10/11 12:22:59;;;;;;;10.57;5.60;;;;;;;20.51;39.36;101814.31;5065057;28;20392;-65
2022/10/11 12:26:40;;;;;;;8.43;4.93;;;;;;;20.41;39.23;101817.44;5066273;28;20404;-63
2022/10/11 12:30:52;;;;;;;9.18;4.80;;;;;;;20.41;39.33;101807.50;5041540;28;20469;-65
2022/10/11 12:33:32;;;;;;;8.90;4.90;;;;;;;20.50;39.17;101818.88;5014821;28;20437;-66
2022/10/11 12:36:02;;;;;;;9.88;4.70;;;;;;;20.56;39.15;101817.22;5025381;28;20399;-64
2022/10/11 12:38:36;;;;;;;9.97;5.33;;;;;;;20.46;39.07;101803.38;5026545;28;20747;-64
2022/10/11 12:41:08;;;;;;;8.57;4.60;;;;;;;20.42;39.20;101798.41;5023838;28;20396;-64
2022/10/11 12:43:47;;;;;;;7.50;4.65;;;;;;;20.39;39.14;101803.38;5025402;28;20774;-64
2022/10/11 12:46:27;;;;;;;11.07;4.87;;;;;;;20.33;39.13;101798.81;5024521;28;20387;-64
2022/10/11 12:49:14;;;;;;;9.00;5.13;;;;;;;20.44;38.58;101798.19;5025196;28;20947;-66
2022/10/11 12:52:03;;;;;;;13.13;4.43;;;;;;;20.57;38.83;101797.34;5026009;28;20761;-65
2022/10/11 12:54:47;;;;;;;8.40;4.50;;;;;;;20.69;38.67;101795.69;5022681;28;20401;-65
2022/10/11 12:57:33;;;;;;;13.10;5.37;;;;;;;20.68;38.73;101788.63;5026109;28;20566;-64
2022/10/11 13:00:26;;;;;;;7.65;4.40;;;;;;;20.59;39.01;101790.69;5025705;28;20777;-64
2022/10/11 13:02:52;;;;;;;8.43;4.33;;;;;;;20.53;39.08;101794.25;5022867;28;20387;-65